Time;durP1;ratioP1;P1;durP2;ratioP2;P2;SDS_P1;SDS_P2;PMS_P1;PMS_P2;Temp;Humidity;BMP_temperature;BMP_pressure;BME280_temperature;BME280_humidity;BME280_pressure;Samples;Min_cycle;Max_cycle;Signal;HPM_P1;HPM_P2
2022/09/26 00:00:44;;;;;;;37.13;27.20;;;12.70;99.90;;;;;;5035899;28;20102;-75
2022/09/26 00:03:10;;;;;;;34.88;26.48;;;12.70;99.90;;;;;;5048537;28;20123;-75
2022/09/26 00:05:37;;;;;;;36.00;27.05;;;12.70;99.90;;;;;;5060367;28;20056;-75
2022/09/26 00:08:05;;;;;;;36.80;27.85;;;12.70;99.90;;;;;;5059529;28;20063;-74
2022/09/26 00:10:32;;;;;;;39.65;28.88;;;12.70;99.90;;;;;;5077861;28;20450;-75
2022/09/26 00:12:58;;;;;;;39.25;27.95;;;12.70;99.90;;;;;;5059224;28;20025;-75
2022/09/26 00:15:23;;;;;;;37.85;28.00;;;12.60;99.90;;;;;;5077664;28;20031;-75
2022/09/26 00:17:49;;;;;;;39.08;28.33;;;12.70;99.90;;;;;;5077331;28;20415;-75
2022/09/26 00:20:15;;;;;;;40.90;29.10;;;12.70;99.90;;;;;;5077365;28;20074;-75
2022/09/26 00:22:41;;;;;;;40.03;28.63;;;12.70;99.90;;;;;;5059371;28;20032;-74
2022/09/26 00:25:07;;;;;;;39.22;29.33;;;12.70;99.90;;;;;;5076977;28;20031;-75
2022/09/26 00:27:33;;;;;;;43.00;31.58;;;12.70;99.90;;;;;;5059260;28;20028;-75
2022/09/26 00:29:58;;;;;;;43.80;30.13;;;12.60;99.90;;;;;;5059209;28;20036;-74
2022/09/26 00:32:24;;;;;;;40.75;30.50;;;12.70;99.90;;;;;;5058889;28;20069;-75
2022/09/26 00:34:49;;;;;;;42.58;31.95;;;12.70;99.90;;;;;;5076866;28;20115;-75
2022/09/26 00:37:16;;;;;;;42.10;31.98;;;12.70;99.90;;;;;;5077326;28;20035;-74
2022/09/26 00:39:41;;;;;;;43.90;32.33;;;12.70;99.90;;;;;;5076648;28;20025;-74
2022/09/26 00:42:12;;;;;;;43.70;32.55;;;12.70;99.90;;;;;;5059045;28;20030;-74
2022/09/26 00:44:44;;;;;;;47.35;34.25;;;12.60;99.90;;;;;;5077001;28;20074;-75
2022/09/26 00:47:31;;;;;;;45.70;32.85;;;12.60;99.90;;;;;;5076743;28;20039;-75
2022/09/26 00:50:38;;;;;;;45.05;33.30;;;12.60;99.90;;;;;;5058953;28;20052;-75
2022/09/26 00:53:08;;;;;;;48.60;33.38;;;12.60;99.90;;;;;;5004574;28;20037;-75
2022/09/26 00:55:40;;;;;;;54.72;35.70;;;12.60;99.90;;;;;;5076740;28;20024;-75
2022/09/26 00:58:22;;;;;;;46.25;33.88;;;12.60;99.90;;;;;;5058411;28;20054;-75
2022/09/26 01:00:48;;;;;;;49.65;34.80;;;12.60;99.90;;;;;;5076378;28;20158;-75
2022/09/26 01:03:15;;;;;;;49.15;35.03;;;12.60;99.90;;;;;;5058733;28;20056;-75
2022/09/26 01:05:42;;;;;;;48.92;35.67;;;12.60;99.90;;;;;;5076515;28;20052;-75
2022/09/26 01:08:09;;;;;;;46.78;34.63;;;12.60;99.90;;;;;;5076761;28;20099;-75
2022/09/26 01:10:36;;;;;;;46.75;34.47;;;12.60;99.90;;;;;;5076580;28;20048;-75
2022/09/26 01:13:03;;;;;;;51.38;36.47;;;12.60;99.90;;;;;;5076426;28;20032;-75
2022/09/26 01:15:28;;;;;;;50.92;34.78;;;12.60;99.90;;;;;;5076372;28;20021;-75
2022/09/26 01:17:55;;;;;;;43.90;31.25;;;12.60;99.90;;;;;;5076297;28;20050;-75
2022/09/26 01:20:55;;;;;;;44.78;31.55;;;12.60;99.90;;;;;;5058316;28;20447;-75
2022/09/26 01:23:43;;;;;;;40.88;29.40;;;12.60;99.90;;;;;;5058374;28;20025;-75
2022/09/26 01:26:37;;;;;;;38.05;28.42;;;12.60;99.90;;;;;;5058132;28;20033;-74
2022/09/26 01:29:24;;;;;;;37.58;27.15;;;12.60;99.90;;;;;;5076114;28;20091;-74
2022/09/26 01:35:04;;;;;;;33.72;23.85;;;12.60;99.90;;;;;;5075780;28;20404;-74
2022/09/26 01:37:51;;;;;;;27.35;20.98;;;12.60;99.90;;;;;;5074803;28;20024;-74
2022/09/26 01:40:28;;;;;;;24.60;19.42;;;12.60;99.90;;;;;;5075712;28;20427;-74
2022/09/26 01:43:26;;;;;;;25.83;19.55;;;12.70;99.90;;;;;;5075858;28;20016;-74
2022/09/26 01:45:59;;;;;;;23.00;18.97;;;12.70;99.90;;;;;;5074797;28;20060;-74
2022/09/26 01:48:37;;;;;;;25.13;17.60;;;12.70;99.90;;;;;;5076193;28;20028;-74
2022/09/26 01:51:11;;;;;;;23.45;17.45;;;12.70;99.90;;;;;;5057852;28;20035;-75
2022/09/26 01:53:48;;;;;;;20.88;15.88;;;12.70;99.90;;;;;;5075447;28;20032;-75
2022/09/26 01:56:19;;;;;;;15.82;13.10;;;12.60;99.90;;;;;;5075908;28;20025;-75
2022/09/26 01:58:58;;;;;;;17.75;14.45;;;12.60;99.90;;;;;;5057726;28;20024;-75
2022/09/26 02:01:28;;;;;;;15.75;12.30;;;12.60;99.90;;;;;;5075308;28;20074;-75
2022/09/26 02:04:00;;;;;;;13.35;11.15;;;12.60;99.90;;;;;;5059406;28;20052;-75
2022/09/26 02:06:49;;;;;;;14.20;11.55;;;12.60;99.90;;;;;;5055397;28;20094;-74
2022/09/26 02:09:22;;;;;;;13.07;10.63;;;12.70;99.90;;;;;;5054965;28;20029;-74
2022/09/26 02:11:49;;;;;;;12.80;10.65;;;12.60;99.90;;;;;;5054423;28;20025;-75
2022/09/26 02:14:20;;;;;;;11.95;10.65;;;12.60;99.90;;;;;;5055254;28;20338;-74
2022/09/26 02:16:53;;;;;;;12.55;9.93;;;12.60;99.90;;;;;;5053972;28;20028;-75
2022/09/26 02:19:35;;;;;;;11.98;10.07;;;12.60;99.90;;;;;;5037870;28;20404;-75
2022/09/26 02:22:01;;;;;;;11.75;9.00;;;12.60;99.90;;;;;;5037176;28;20039;-75
2022/09/26 02:24:27;;;;;;;12.77;9.43;;;12.60;99.90;;;;;;5054641;28;20021;-77
2022/09/26 02:26:53;;;;;;;10.13;8.85;;;12.60;99.90;;;;;;5037608;28;20388;-75
2022/09/26 02:29:19;;;;;;;11.50;9.05;;;12.60;99.90;;;;;;5037650;28;20119;-75
2022/09/26 02:31:55;;;;;;;10.15;9.05;;;12.60;99.90;;;;;;5055297;28;20116;-76
2022/09/26 02:34:23;;;;;;;12.45;8.90;;;12.60;99.90;;;;;;5036962;28;20021;-74
2022/09/26 02:36:48;;;;;;;10.63;8.52;;;12.60;99.90;;;;;;5036670;28;20036;-75
2022/09/26 02:39:14;;;;;;;10.48;8.68;;;12.60;99.90;;;;;;5054399;28;20021;-74
2022/09/26 02:42:12;;;;;;;10.00;8.35;;;12.60;99.90;;;;;;5036813;28;20033;-75
2022/09/26 02:45:06;;;;;;;10.35;8.98;;;12.70;99.90;;;;;;4999641;28;20048;-75
2022/09/26 02:48:08;;;;;;;9.48;8.48;;;12.70;99.90;;;;;;5054640;28;20091;-74
2022/09/26 02:51:00;;;;;;;9.68;8.38;;;12.70;99.90;;;;;;5053245;28;20025;-74
2022/09/26 02:53:32;;;;;;;10.35;8.05;;;12.70;99.90;;;;;;5054241;28;20104;-75
2022/09/26 02:56:24;;;;;;;9.55;7.80;;;12.70;99.90;;;;;;5054532;28;20025;-75
2022/09/26 02:59:32;;;;;;;10.13;8.23;;;12.80;99.90;;;;;;5036858;28;20231;-75
2022/09/26 03:02:06;;;;;;;7.97;7.18;;;12.70;99.90;;;;;;5036864;28;20033;-75
2022/09/26 03:05:00;;;;;;;6.88;6.15;;;12.80;99.90;;;;;;5054424;28;20488;-74
2022/09/26 03:07:55;;;;;;;7.45;6.75;;;12.80;99.90;;;;;;5054427;28;20033;-75
2022/09/26 03:10:22;;;;;;;7.32;6.38;;;12.80;99.90;;;;;;5035417;28;20044;-74
2022/09/26 03:12:49;;;;;;;6.68;5.72;;;12.80;99.90;;;;;;5036234;28;20052;-74
2022/09/26 03:15:17;;;;;;;8.80;6.03;;;12.80;99.90;;;;;;5054085;28;20036;-74
2022/09/26 03:18:05;;;;;;;6.53;5.50;;;12.80;99.90;;;;;;5036204;28;20033;-74
2022/09/26 03:20:31;;;;;;;5.50;5.00;;;12.80;99.90;;;;;;5054313;28;20021;-74
2022/09/26 03:22:56;;;;;;;6.78;5.30;;;12.80;99.90;;;;;;5054267;28;20381;-75
2022/09/26 03:25:26;;;;;;;6.20;5.00;;;12.80;99.90;;;;;;5054416;28;20055;-74
2022/09/26 03:27:53;;;;;;;4.88;4.30;;;12.80;99.90;;;;;;5053567;28;20040;-74
2022/09/26 03:30:21;;;;;;;5.22;4.32;;;12.80;99.90;;;;;;5035973;28;20033;-74
2022/09/26 03:32:47;;;;;;;4.70;4.30;;;12.80;99.90;;;;;;5053861;28;20025;-74
2022/09/26 03:35:14;;;;;;;6.32;4.55;;;12.70;99.90;;;;;;5053556;28;20025;-74
2022/09/26 03:37:40;;;;;;;5.65;4.15;;;12.70;99.90;;;;;;5052567;28;20074;-74
2022/09/26 03:40:11;;;;;;;4.45;4.05;;;12.70;99.90;;;;;;5053756;28;20025;-74
2022/09/26 03:42:37;;;;;;;5.32;4.28;;;12.70;99.90;;;;;;5036403;28;20112;-74
2022/09/26 03:45:06;;;;;;;4.57;3.50;;;12.70;99.90;;;;;;5035969;28;20063;-74
2022/09/26 03:47:31;;;;;;;;;;;12.70;99.90;;;;;;5054042;28;20379;-74
2022/09/26 03:49:57;;;;;;;4.00;3.60;;;12.70;99.90;;;;;;5053510;28;19904;-74
2022/09/26 03:52:23;;;;;;;4.30;3.90;;;12.80;99.90;;;;;;5053370;28;20025;-74
2022/09/26 03:54:50;;;;;;;5.60;3.67;;;12.80;99.90;;;;;;5052324;28;20033;-74
2022/09/26 03:57:16;;;;;;;6.00;4.40;;;12.80;99.90;;;;;;5035996;28;20029;-74
2022/09/26 03:59:42;;;;;;;4.93;4.43;;;12.80;99.90;;;;;;5035627;28;20507;-74
2022/09/26 04:02:08;;;;;;;5.15;4.50;;;12.80;99.90;;;;;;5035677;28;20033;-74
2022/09/26 04:04:35;;;;;;;7.95;5.25;;;12.70;99.90;;;;;;5035719;28;20490;-74
2022/09/26 04:07:01;;;;;;;7.63;6.15;;;12.70;99.90;;;;;;5053523;28;20063;-74
2022/09/26 04:09:26;;;;;;;7.78;5.72;;;12.70;99.90;;;;;;5053271;28;20044;-74
2022/09/26 04:11:53;;;;;;;6.63;5.85;;;12.70;99.90;;;;;;5036107;28;20033;-72
2022/09/26 04:14:19;;;;;;;10.82;7.00;;;12.60;99.90;;;;;;5054842;28;20021;-74
2022/09/26 04:16:45;;;;;;;9.65;6.80;;;12.60;99.90;;;;;;5054396;28;20060;-75
2022/09/26 04:19:12;;;;;;;8.60;6.68;;;12.60;99.90;;;;;;5054873;28;20373;-73
2022/09/26 04:21:39;;;;;;;8.07;6.55;;;12.60;99.90;;;;;;5036056;28;20115;-73
2022/09/26 04:24:06;;;;;;;10.48;7.22;;;12.60;99.90;;;;;;5035450;28;20488;-73
2022/09/26 04:26:32;;;;;;;9.10;6.32;;;12.60;99.90;;;;;;5035355;28;20428;-73
2022/09/26 04:28:58;;;;;;;9.52;7.05;;;12.60;99.90;;;;;;5052990;28;20029;-73
2022/09/26 04:31:26;;;;;;;8.32;6.53;;;12.60;99.90;;;;;;5053201;28;20025;-73
2022/09/26 04:33:54;;;;;;;8.33;6.57;;;12.60;99.90;;;;;;5053115;28;20029;-74
2022/09/26 04:36:20;;;;;;;8.90;7.13;;;12.60;99.90;;;;;;5053172;28;20061;-73
2022/09/26 04:38:46;;;;;;;9.45;6.90;;;12.50;99.90;;;;;;5035300;28;20025;-71
2022/09/26 04:41:17;;;;;;;11.13;7.82;;;12.60;99.90;;;;;;5052862;28;20377;-72
2022/09/26 04:43:43;;;;;;;10.63;8.18;;;12.50;99.90;;;;;;5053175;28;20384;-73
2022/09/26 04:46:12;;;;;;;9.32;7.25;;;12.50;99.90;;;;;;5052791;28;20017;-72
2022/09/26 04:48:38;;;;;;;10.43;8.35;;;12.50;99.90;;;;;;5036921;28;20025;-72
2022/09/26 04:51:08;;;;;;;13.15;9.00;;;12.60;99.90;;;;;;5056762;28;20166;-76
2022/09/26 04:53:34;;;;;;;11.43;8.23;;;12.50;99.90;;;;;;5056729;28;20033;-75
2022/09/26 04:56:00;;;;;;;12.02;8.35;;;12.60;99.90;;;;;;5056486;28;20535;-73
2022/09/26 04:58:27;;;;;;;12.68;9.38;;;12.50;99.90;;;;;;5056312;28;20022;-73
2022/09/26 05:00:52;;;;;;;13.60;9.75;;;12.50;99.90;;;;;;5056344;28;20528;-75
2022/09/26 05:03:19;;;;;;;13.57;9.98;;;12.50;99.90;;;;;;5049660;28;20151;-74
2022/09/26 05:05:49;;;;;;;15.10;10.70;;;12.50;99.90;;;;;;5059052;28;20025;-74
2022/09/26 05:08:15;;;;;;;16.90;12.05;;;12.50;99.90;;;;;;5076072;28;20384;-74
2022/09/26 05:10:42;;;;;;;17.25;11.52;;;12.50;99.90;;;;;;5058077;28;20028;-74
2022/09/26 05:13:08;;;;;;;18.08;12.48;;;12.50;99.90;;;;;;5058578;28;20021;-75
2022/09/26 05:15:38;;;;;;;18.85;11.85;;;12.50;99.90;;;;;;5076312;28;20074;-75
2022/09/26 05:18:06;;;;;;;19.23;12.88;;;12.50;99.90;;;;;;5074960;28;20032;-63
2022/09/26 05:20:33;;;;;;;22.15;14.85;;;12.50;99.90;;;;;;5076154;28;20024;-63
2022/09/26 05:23:00;;;;;;;23.88;15.00;;;12.50;99.90;;;;;;5076191;28;20074;-63
2022/09/26 05:28:11;;;;;;;23.42;15.60;;;12.60;99.90;;;;;;5076004;28;20063;-62
2022/09/26 05:30:38;;;;;;;26.75;15.93;;;12.70;99.90;;;;;;5076016;28;20029;-62
2022/09/26 05:33:04;;;;;;;26.10;16.25;;;12.70;99.90;;;;;;5076129;28;20023;-62
2022/09/26 05:35:34;;;;;;;31.00;17.58;;;12.70;99.90;;;;;;5076162;28;20107;-63
2022/09/26 05:38:03;;;;;;;25.65;16.40;;;12.70;99.90;;;;;;5076052;28;20059;-63
2022/09/26 05:43:26;;;;;;;31.95;18.08;;;12.80;99.90;;;;;;5053767;28;20127;-74
2022/09/26 05:46:11;;;;;;;25.05;17.45;;;12.80;99.90;;;;;;5057861;28;20035;-74
2022/09/26 05:48:38;;;;;;;27.52;17.52;;;12.80;99.90;;;;;;5075997;28;20530;-74
2022/09/26 05:51:11;;;;;;;26.75;17.50;;;12.80;99.90;;;;;;5075698;28;20021;-73
2022/09/26 05:53:37;;;;;;;27.88;18.45;;;12.80;99.90;;;;;;5057640;28;20483;-74
2022/09/26 05:56:05;;;;;;;29.08;18.98;;;12.80;99.90;;;;;;5075571;28;20475;-73
2022/09/26 05:58:31;;;;;;;27.58;18.52;;;12.80;99.90;;;;;;5075513;28;20043;-73
2022/09/26 06:01:09;;;;;;;30.95;18.98;;;12.80;99.90;;;;;;5056433;28;20033;-74
2022/09/26 06:03:35;;;;;;;30.27;20.55;;;12.90;99.90;;;;;;5061822;28;20393;-74
2022/09/26 06:06:09;;;;;;;25.80;17.63;;;12.90;99.90;;;;;;5055196;28;20413;-74
2022/09/26 06:08:36;;;;;;;26.48;17.38;;;12.90;99.90;;;;;;5055427;28;20048;-74
2022/09/26 06:11:05;;;;;;;25.67;17.60;;;13.00;99.90;;;;;;5055524;28;20127;-74
2022/09/26 06:13:31;;;;;;;24.52;16.80;;;12.90;99.90;;;;;;5054977;28;20436;-74
2022/09/26 06:16:06;;;;;;;27.00;18.23;;;13.00;99.90;;;;;;5037240;28;20159;-74
2022/09/26 06:18:35;;;;;;;28.15;18.77;;;13.10;99.90;;;;;;5053898;28;20029;-74
2022/09/26 06:21:05;;;;;;;23.10;16.73;;;13.00;99.90;;;;;;5053783;28;20029;-75
2022/09/26 06:23:33;;;;;;;24.75;17.67;;;13.10;99.90;;;;;;5037373;28;20021;-74
2022/09/26 06:25:59;;;;;;;25.85;17.05;;;13.20;99.90;;;;;;5054983;28;20063;-74
2022/09/26 06:28:26;;;;;;;27.40;17.27;;;13.20;99.90;;;;;;5054918;28;20021;-74
2022/09/26 06:30:53;;;;;;;25.67;17.23;;;13.20;99.90;;;;;;5053634;28;20465;-74
2022/09/26 06:33:18;;;;;;;25.33;17.05;;;13.20;99.90;;;;;;5054744;28;20036;-73
2022/09/26 06:35:44;;;;;;;24.92;17.00;;;13.30;99.90;;;;;;5054872;28;20025;-74
2022/09/26 06:38:10;;;;;;;23.83;16.27;;;13.30;99.90;;;;;;5037202;28;20032;-74
2022/09/26 06:40:36;;;;;;;28.77;17.58;;;13.30;99.90;;;;;;5036814;28;20027;-74
2022/09/26 06:43:01;;;;;;;29.30;18.83;;;13.30;99.90;;;;;;5036979;28;20053;-74
2022/09/26 06:45:27;;;;;;;28.13;17.02;;;13.40;99.90;;;;;;5054604;28;20444;-74
2022/09/26 06:47:53;;;;;;;25.60;17.08;;;13.40;99.90;;;;;;5036786;28;20091;-74
2022/09/26 06:50:20;;;;;;;24.60;16.70;;;13.50;99.90;;;;;;5054561;28;20110;-74
2022/09/26 06:52:46;;;;;;;28.27;17.25;;;13.50;99.90;;;;;;5054536;28;20116;-74
2022/09/26 06:55:12;;;;;;;25.15;16.55;;;13.50;99.90;;;;;;5036463;28;20477;-70
2022/09/26 06:57:42;;;;;;;22.85;16.63;;;13.60;99.90;;;;;;5054407;28;20068;-74
2022/09/26 07:00:10;;;;;;;22.25;16.15;;;13.70;99.90;;;;;;5054376;28;20465;-74
2022/09/26 07:02:36;;;;;;;21.17;15.80;;;13.80;99.90;;;;;;5054225;28;20089;-74
2022/09/26 07:05:04;;;;;;;21.58;15.90;;;13.90;99.90;;;;;;5036713;28;20435;-74
2022/09/26 07:07:31;;;;;;;21.20;14.70;;;14.00;99.90;;;;;;5054259;28;20029;-74
2022/09/26 07:09:56;;;;;;;17.63;13.73;;;14.10;99.90;;;;;;5035916;28;20036;-74
2022/09/26 07:12:23;;;;;;;19.50;13.90;;;14.10;99.90;;;;;;5054000;28;20021;-74
2022/09/26 07:14:50;;;;;;;16.10;11.93;;;14.10;99.90;;;;;;5054128;28;20033;-74
2022/09/26 07:17:16;;;;;;;15.85;12.52;;;14.20;99.90;;;;;;5036313;28;20028;-74
2022/09/26 07:19:43;;;;;;;15.27;12.27;;;14.10;99.90;;;;;;5036185;28;20029;-74
2022/09/26 07:22:09;;;;;;;15.93;11.77;;;14.20;99.90;;;;;;5054018;28;20029;-74
2022/09/26 07:24:35;;;;;;;13.75;11.10;;;14.20;99.90;;;;;;5053061;28;20025;-74
2022/09/26 07:27:01;;;;;;;17.38;11.65;;;14.20;99.90;;;;;;5036018;28;20047;-74
2022/09/26 07:29:28;;;;;;;15.38;11.00;;;14.20;99.90;;;;;;5053599;28;20055;-74
2022/09/26 07:31:54;;;;;;;14.93;12.23;;;14.20;99.90;;;;;;5053921;28;20027;-74
2022/09/26 07:34:23;;;;;;;14.48;10.77;;;14.20;99.90;;;;;;5036048;28;20381;-74
2022/09/26 07:36:50;;;;;;;12.77;11.13;;;14.30;99.90;;;;;;5036034;28;20040;-74
2022/09/26 07:39:16;;;;;;;14.75;11.65;;;14.30;99.90;;;;;;5036224;28;20029;-74
2022/09/26 07:41:43;;;;;;;14.80;11.10;;;14.30;99.90;;;;;;5052772;28;20029;-74
2022/09/26 07:44:09;;;;;;;15.98;10.93;;;14.40;99.90;;;;;;5053463;28;20432;-74
2022/09/26 07:52:03;;;;;;;15.00;11.73;;;14.60;99.90;;;;;;5053665;28;20487;-74
2022/09/26 07:54:29;;;;;;;14.52;10.80;;;14.70;99.90;;;;;;5053283;28;20103;-75
2022/09/26 07:56:54;;;;;;;10.82;9.50;;;15.10;99.90;;;;;;5053604;28;20078;-74
2022/09/26 07:59:21;;;;;;;15.27;9.85;;;15.60;99.90;;;;;;5053291;28;20129;-74
2022/09/26 08:01:47;;;;;;;12.73;9.07;;;16.00;99.90;;;;;;5053543;28;20025;-74
2022/09/26 08:04:14;;;;;;;9.88;8.88;;;16.00;99.90;;;;;;5053735;28;20491;-74
2022/09/26 08:06:40;;;;;;;10.98;9.25;;;16.10;99.90;;;;;;5073401;28;20033;-74
2022/09/26 08:09:06;;;;;;;10.00;8.93;;;16.10;99.90;;;;;;5073190;28;20031;-74
2022/09/26 08:11:33;;;;;;;13.63;9.85;;;16.10;99.90;;;;;;5073042;28;20529;-74
2022/09/26 08:14:00;;;;;;;12.52;9.25;;;16.20;99.90;;;;;;5073374;28;20028;-74
2022/09/26 08:16:26;;;;;;;12.35;9.73;;;16.50;99.90;;;;;;5055396;28;20529;-74
2022/09/26 08:18:53;;;;;;;10.27;8.43;;;16.80;99.90;;;;;;5073428;28;20075;-74
2022/09/26 08:21:20;;;;;;;11.85;9.55;;;17.10;99.90;;;;;;5073972;28;20076;-74
2022/09/26 08:23:46;;;;;;;10.55;9.05;;;17.00;99.90;;;;;;5081374;28;20031;-74
2022/09/26 08:26:12;;;;;;;12.38;9.85;;;16.90;99.90;;;;;;5099346;28;20076;-74
2022/09/26 08:28:38;;;;;;;10.57;9.18;;;16.70;99.90;;;;;;5075848;28;20043;-74
2022/09/26 08:31:04;;;;;;;10.45;8.55;;;16.70;99.90;;;;;;5079202;28;20448;-74
2022/09/26 08:33:34;;;;;;;11.88;8.90;;;16.80;99.90;;;;;;5077902;28;20532;-74
2022/09/26 08:36:11;;;;;;;9.75;8.40;;;16.90;99.90;;;;;;5077080;28;20470;-74
2022/09/26 08:38:37;;;;;;;9.63;8.63;;;16.70;99.90;;;;;;5077434;28;20025;-74
2022/09/26 08:41:22;;;;;;;11.07;8.32;;;16.70;99.90;;;;;;5076794;28;20461;-73
2022/09/26 08:44:02;;;;;;;13.85;8.82;;;16.60;99.90;;;;;;5077200;28;20067;-74
2022/09/26 08:49:24;;;;;;;12.98;8.40;;;16.40;99.90;;;;;;5085299;28;20036;-73
2022/09/26 08:51:56;;;;;;;9.60;8.60;;;16.30;99.90;;;;;;5079242;28;20525;-74
2022/09/26 08:54:39;;;;;;;9.15;7.70;;;16.40;99.90;;;;;;5096817;28;20028;-74
2022/09/26 08:57:36;;;;;;;8.63;7.68;;;16.40;99.90;;;;;;5096875;28;20036;-74
2022/09/26 09:00:23;;;;;;;8.95;7.55;;;16.40;99.90;;;;;;5063502;28;20039;-74
2022/09/26 09:02:55;;;;;;;9.25;7.68;;;16.50;99.90;;;;;;5058437;28;20048;-73
2022/09/26 09:05:25;;;;;;;7.97;7.18;;;16.40;99.90;;;;;;5058485;28;20035;-74
2022/09/26 09:07:55;;;;;;;7.20;6.50;;;16.50;99.90;;;;;;5078458;28;20036;-74
2022/09/26 09:10:49;;;;;;;7.85;6.65;;;16.60;99.90;;;;;;5078445;28;20031;-73
2022/09/26 09:13:33;;;;;;;7.10;6.40;;;16.80;99.90;;;;;;5093827;28;20441;-73
2022/09/26 09:16:01;;;;;;;8.55;5.45;;;16.60;99.90;;;;;;5090747;28;20033;-74
2022/09/26 09:18:33;;;;;;;5.93;5.32;;;16.40;99.90;;;;;;5058389;28;20119;-74
2022/09/26 09:21:12;;;;;;;7.47;4.90;;;16.20;99.90;;;;;;5076208;28;20092;-73
2022/09/26 09:23:47;;;;;;;8.05;4.90;;;16.20;99.90;;;;;;5058475;28;20426;-73
2022/09/26 09:26:32;;;;;;;5.93;4.25;;;16.70;99.90;;;;;;5065150;28;20024;-73
2022/09/26 09:29:15;;;;;;;5.72;3.90;;;18.00;99.90;;;;;;5078046;28;20456;-73
2022/09/26 09:31:43;;;;;;;4.57;4.00;;;19.30;99.90;;;;;;5096028;28;20036;-74
2022/09/26 09:34:17;;;;;;;4.63;3.28;;;20.20;99.90;;;;;;5060906;28;20048;-73
2022/09/26 09:36:52;;;;;;;5.25;3.25;;;20.40;99.90;;;;;;5067008;28;20388;-73
2022/09/26 09:39:32;;;;;;;3.33;2.72;;;20.30;99.10;;;;;;5076006;28;20035;-73
2022/09/26 09:42:20;;;;;;;3.20;2.55;;;21.00;98.50;;;;;;5057540;28;20027;-73
2022/09/26 09:44:59;;;;;;;2.53;2.38;;;21.50;96.40;;;;;;5075519;28;20435;-73
2022/09/26 09:47:30;;;;;;;2.97;2.70;;;21.60;95.90;;;;;;5073667;28;20126;-73
2022/09/26 09:49:58;;;;;;;3.40;2.70;;;22.00;94.50;;;;;;5078077;28;20028;-74
2022/09/26 09:52:39;;;;;;;3.83;2.10;;;22.60;93.90;;;;;;5078033;28;20054;-73
2022/09/26 09:55:41;;;;;;;3.42;2.42;;;23.00;92.20;;;;;;5095524;28;20095;-73
2022/09/26 09:58:22;;;;;;;2.50;2.30;;;23.50;89.60;;;;;;5075567;28;20472;-74
2022/09/26 10:01:16;;;;;;;2.03;1.92;;;23.60;86.40;;;;;;5075562;28;20021;-74
2022/09/26 10:04:36;;;;;;;2.30;2.10;;;23.30;84.70;;;;;;5060807;28;20056;-73
2022/09/26 10:07:04;;;;;;;2.50;1.88;;;22.40;87.00;;;;;;5027744;28;20139;-73
2022/09/26 10:09:37;;;;;;;2.10;2.00;;;22.10;89.40;;;;;;5075267;28;20021;-73
2022/09/26 10:12:15;;;;;;;1.83;1.73;;;22.00;87.00;;;;;;5057455;28;20112;-73
2022/09/26 10:14:53;;;;;;;2.97;1.80;;;21.50;89.00;;;;;;5075294;28;20025;-74
2022/09/26 10:17:21;;;;;;;1.93;1.73;;;20.70;91.50;;;;;;5042442;28;20044;-74
2022/09/26 10:19:47;;;;;;;1.70;1.60;;;20.50;92.20;;;;;;5037273;28;20037;-73
2022/09/26 10:22:36;;;;;;;2.00;1.80;;;19.80;93.70;;;;;;5037294;28;20025;-73
2022/09/26 10:25:14;;;;;;;2.33;1.70;;;19.60;94.40;;;;;;5055034;28;20028;-74
2022/09/26 10:27:47;;;;;;;1.70;1.60;;;19.40;95.30;;;;;;5072111;28;20040;-74
2022/09/26 10:30:18;;;;;;;3.75;1.90;;;19.10;95.70;;;;;;5057332;28;20036;-74
2022/09/26 10:32:52;;;;;;;1.88;1.63;;;19.00;95.40;;;;;;5074959;28;20104;-73
2022/09/26 10:35:24;;;;;;;3.00;2.50;;;19.20;95.90;;;;;;5057582;28;20384;-73
2022/09/26 10:38:00;;;;;;;4.65;2.40;;;19.40;94.70;;;;;;5038782;28;20036;-75
2022/09/26 10:40:45;;;;;;;3.00;2.80;;;18.90;95.60;;;;;;5055019;28;20056;-73
2022/09/26 10:43:36;;;;;;;3.05;2.83;;;18.60;95.70;;;;;;5037781;28;20083;-75
2022/09/26 10:46:14;;;;;;;2.55;2.10;;;18.40;96.50;;;;;;5054124;28;20365;-73
2022/09/26 10:48:47;;;;;;;2.60;2.40;;;18.40;96.30;;;;;;5054779;28;20030;-74
2022/09/26 10:51:22;;;;;;;3.28;2.35;;;18.50;97.10;;;;;;5036723;28;20425;-74
2022/09/26 10:53:51;;;;;;;3.45;1.95;;;19.10;96.30;;;;;;5036532;28;20049;-73
2022/09/26 10:56:25;;;;;;;2.35;1.60;;;20.00;95.30;;;;;;5037158;28;20021;-74
2022/09/26 10:58:56;;;;;;;2.67;1.70;;;20.60;92.90;;;;;;5036577;28;20060;-73
2022/09/26 11:01:25;;;;;;;1.65;1.55;;;21.30;92.10;;;;;;5054467;28;20025;-74
2022/09/26 11:03:58;;;;;;;3.67;1.70;;;22.70;87.40;;;;;;5053784;28;20041;-74
2022/09/26 11:06:24;;;;;;;3.80;1.70;;;23.20;83.80;;;;;;5054249;28;20064;-74
2022/09/26 11:08:53;;;;;;;2.00;1.80;;;23.70;79.50;;;;;;5036416;28;20378;-74
2022/09/26 11:11:20;;;;;;;1.73;1.63;;;24.10;76.40;;;;;;5054216;28;20104;-74
2022/09/26 11:13:55;;;;;;;4.20;1.63;;;24.10;76.60;;;;;;5054020;28;20086;-74
2022/09/26 11:16:20;;;;;;;1.55;1.30;;;23.60;75.00;;;;;;5046692;28;20131;-74
2022/09/26 11:18:49;;;;;;;2.42;2.00;;;22.70;76.00;;;;;;5055958;28;20092;-74
2022/09/26 11:21:24;;;;;;;;;;;21.90;77.60;;;;;;5056543;28;20468;-74
2022/09/26 11:24:18;;;;;;;2.30;1.42;;;21.90;81.70;;;;;;5073843;28;19905;-74
2022/09/26 11:26:51;;;;;;;1.70;1.60;;;22.10;82.20;;;;;;5060240;28;20055;-74
2022/09/26 11:29:54;;;;;;;2.60;1.90;;;22.20;79.90;;;;;;5053921;28;20029;-74
2022/09/26 11:32:37;;;;;;;3.67;1.80;;;22.10;79.50;;;;;;5036008;28;20029;-74
2022/09/26 11:35:04;;;;;;;2.10;1.52;;;22.40;80.40;;;;;;5053870;28;20064;-73
2022/09/26 11:37:39;;;;;;;2.35;1.67;;;22.30;79.40;;;;;;5058784;28;20032;-74
2022/09/26 11:40:29;;;;;;;3.08;1.55;;;22.70;75.40;;;;;;5073770;28;20028;-74
2022/09/26 11:43:18;;;;;;;2.92;2.08;;;22.40;75.90;;;;;;5073403;28;20032;-74
2022/09/26 11:46:15;;;;;;;1.80;1.70;;;22.20;74.20;;;;;;5055629;28;20530;-74
2022/09/26 11:48:46;;;;;;;1.77;1.67;;;21.80;78.80;;;;;;5055556;28;20400;-74
2022/09/26 11:51:18;;;;;;;3.35;2.00;;;21.60;80.40;;;;;;5035677;28;20070;-73
2022/09/26 11:53:47;;;;;;;2.38;2.08;;;21.00;81.30;;;;;;5053637;28;20020;-74
2022/09/26 11:56:22;;;;;;;3.10;2.30;;;20.40;82.60;;;;;;5053539;28;20063;-73
2022/09/26 11:59:14;;;;;;;4.55;3.70;;;19.60;84.10;;;;;;5048467;28;20434;-73
2022/09/26 12:02:02;;;;;;;2.60;2.40;;;19.10;85.90;;;;;;5059404;28;20472;-74
2022/09/26 12:04:44;;;;;;;2.30;2.20;;;19.10;88.40;;;;;;5063113;28;20083;-74
2022/09/26 12:07:42;;;;;;;2.70;2.50;;;19.10;90.00;;;;;;5056548;28;20503;-73
2022/09/26 12:10:13;;;;;;;3.33;2.10;;;19.10;88.60;;;;;;5056668;28;20070;-74
2022/09/26 12:13:06;;;;;;;3.05;2.05;;;19.20;89.70;;;;;;5056420;28;20033;-73
2022/09/26 12:15:58;;;;;;;2.65;2.45;;;19.20;90.00;;;;;;5056439;28;20422;-74
2022/09/26 12:18:34;;;;;;;2.47;1.98;;;19.40;90.50;;;;;;5044742;28;20086;-74
2022/09/26 12:21:20;;;;;;;5.03;1.95;;;19.60;90.30;;;;;;5056262;28;20120;-74
2022/09/26 12:23:53;;;;;;;2.10;2.00;;;19.80;90.10;;;;;;5056312;28;20025;-74
2022/09/26 12:26:36;;;;;;;3.80;2.20;;;19.80;90.20;;;;;;5057183;28;20025;-74
2022/09/26 12:29:22;;;;;;;3.10;2.35;;;19.50;90.20;;;;;;5056047;28;20021;-73
2022/09/26 12:32:19;;;;;;;2.38;2.17;;;19.30;91.10;;;;;;5056100;28;20036;-74
2022/09/26 12:35:07;;;;;;;4.47;2.15;;;19.20;90.50;;;;;;5056011;28;20108;-74
2022/09/26 12:38:02;;;;;;;7.60;2.53;;;19.30;90.90;;;;;;5057804;28;20036;-59
2022/09/26 12:41:01;;;;;;;4.22;3.17;;;19.60;90.60;;;;;;5059071;28;20358;-59
2022/09/26 12:44:01;;;;;;;2.17;1.75;;;19.80;89.30;;;;;;5058234;28;20120;-59
2022/09/26 12:46:48;;;;;;;5.95;2.25;;;19.80;89.90;;;;;;5057893;28;20029;-59
2022/09/26 12:49:24;;;;;;;3.28;1.95;;;19.90;90.40;;;;;;5056960;28;20021;-59
2022/09/26 12:51:54;;;;;;;3.83;2.13;;;20.10;90.30;;;;;;5057365;28;20115;-59
2022/09/26 12:54:32;;;;;;;1.95;1.75;;;20.20;89.20;;;;;;5056756;28;20456;-59
2022/09/26 12:57:24;;;;;;;2.28;2.08;;;20.40;89.20;;;;;;5057572;28;20055;-78
2022/09/26 12:59:59;;;;;;;2.05;1.75;;;20.20;87.40;;;;;;5055764;28;20025;-77
2022/09/26 13:02:54;;;;;;;2.67;2.22;;;20.20;87.80;;;;;;5075521;28;20041;-78
2022/09/26 13:05:38;;;;;;;1.90;1.80;;;20.00;88.20;;;;;;5076211;28;20376;-77
2022/09/26 13:08:41;;;;;;;1.83;1.70;;;20.20;88.20;;;;;;5058728;28;20127;-78
2022/09/26 13:11:51;;;;;;;1.90;1.80;;;21.10;85.60;;;;;;5021172;28;20029;-78
2022/09/26 13:14:26;;;;;;;2.65;1.80;;;22.00;81.20;;;;;;4975244;28;20082;-78
2022/09/26 13:17:30;;;;;;;1.42;1.27;;;22.00;81.20;;;;;;5067851;28;20044;-79
2022/09/26 13:20:02;;;;;;;1.52;1.42;;;22.00;79.20;;;;;;5020829;28;20039;-79
2022/09/26 13:22:53;;;;;;;1.73;1.52;;;22.40;80.00;;;;;;5058361;28;20029;-78
2022/09/26 13:25:22;;;;;;;6.28;1.77;;;22.50;78.40;;;;;;5058692;28;20376;-78
2022/09/26 13:28:03;;;;;;;1.77;1.15;;;22.50;77.50;;;;;;5058698;28;20381;-78